sensor_id;sensor_type;location;lat;lon;timestamp;P1;durP1;ratioP1;P2;durP2;ratioP2
7883;SDS011;3987;51.458;7.238;2024-02-26T00:06:26;2.20;;;2.20;;
7883;SDS011;3987;51.458;7.238;2024-02-26T00:21:27;2.43;;;2.43;;
7883;SDS011;3987;51.458;7.238;2024-02-26T00:36:28;2.67;;;2.67;;
7883;SDS011;3987;51.458;7.238;2024-02-26T00:51:28;2.28;;;2.22;;
7883;SDS011;3987;51.458;7.238;2024-02-26T01:06:29;2.40;;;2.40;;
7883;SDS011;3987;51.458;7.238;2024-02-26T01:21:29;2.90;;;2.80;;
7883;SDS011;3987;51.458;7.238;2024-02-26T01:36:30;2.90;;;2.80;;
7883;SDS011;3987;51.458;7.238;2024-02-26T01:51:30;3.38;;;3.28;;
7883;SDS011;3987;51.458;7.238;2024-02-26T02:06:32;3.55;;;3.47;;
7883;SDS011;3987;51.458;7.238;2024-02-26T02:21:33;3.30;;;3.20;;
7883;SDS011;3987;51.458;7.238;2024-02-26T02:36:33;2.55;;;2.55;;
7883;SDS011;3987;51.458;7.238;2024-02-26T02:51:34;2.70;;;2.70;;
7883;SDS011;3987;51.458;7.238;2024-02-26T03:06:34;2.53;;;2.53;;
7883;SDS011;3987;51.458;7.238;2024-02-26T03:21:34;2.33;;;2.33;;
7883;SDS011;3987;51.458;7.238;2024-02-26T03:36:35;2.57;;;2.47;;
7883;SDS011;3987;51.458;7.238;2024-02-26T03:51:35;3.10;;;3.10;;
7883;SDS011;3987;51.458;7.238;2024-02-26T04:06:36;3.50;;;3.40;;
7883;SDS011;3987;51.458;7.238;2024-02-26T04:21:37;4.10;;;4.00;;
7883;SDS011;3987;51.458;7.238;2024-02-26T04:36:37;3.40;;;3.40;;
7883;SDS011;3987;51.458;7.238;2024-02-26T04:51:38;3.92;;;3.92;;
7883;SDS011;3987;51.458;7.238;2024-02-26T05:06:38;4.17;;;3.97;;
7883;SDS011;3987;51.458;7.238;2024-02-26T05:21:39;4.22;;;4.13;;
7883;SDS011;3987;51.458;7.238;2024-02-26T05:36:40;6.40;;;6.30;;
7883;SDS011;3987;51.458;7.238;2024-02-26T05:51:40;5.00;;;4.80;;
7883;SDS011;3987;51.458;7.238;2024-02-26T06:06:41;5.00;;;4.70;;
7883;SDS011;3987;51.458;7.238;2024-02-26T06:21:41;4.55;;;4.45;;
7883;SDS011;3987;51.458;7.238;2024-02-26T06:36:42;5.05;;;4.95;;
7883;SDS011;3987;51.458;7.238;2024-02-26T06:51:42;5.10;;;4.90;;
7883;SDS011;3987;51.458;7.238;2024-02-26T07:06:43;5.50;;;5.30;;
7883;SDS011;3987;51.458;7.238;2024-02-26T07:21:43;6.38;;;6.22;;
7883;SDS011;3987;51.458;7.238;2024-02-26T07:36:44;5.55;;;5.45;;
7883;SDS011;3987;51.458;7.238;2024-02-26T07:51:44;6.37;;;6.17;;
7883;SDS011;3987;51.458;7.238;2024-02-26T08:06:45;6.40;;;6.20;;
7883;SDS011;3987;51.458;7.238;2024-02-26T08:21:54;6.83;;;6.63;;
7883;SDS011;3987;51.458;7.238;2024-02-26T08:36:54;7.32;;;7.05;;
7883;SDS011;3987;51.458;7.238;2024-02-26T08:51:55;7.95;;;7.75;;
7883;SDS011;3987;51.458;7.238;2024-02-26T09:06:56;6.80;;;6.50;;
7883;SDS011;3987;51.458;7.238;2024-02-26T09:21:57;7.70;;;7.35;;
7883;SDS011;3987;51.458;7.238;2024-02-26T09:36:58;9.20;;;8.60;;
7883;SDS011;3987;51.458;7.238;2024-02-26T09:51:58;7.50;;;7.20;;
7883;SDS011;3987;51.458;7.238;2024-02-26T10:06:59;7.83;;;7.53;;
7883;SDS011;3987;51.458;7.238;2024-02-26T10:22:01;6.63;;;6.33;;
7883;SDS011;3987;51.458;7.238;2024-02-26T10:37:04;8.87;;;8.37;;
7883;SDS011;3987;51.458;7.238;2024-02-26T10:52:05;8.23;;;7.83;;
7883;SDS011;3987;51.458;7.238;2024-02-26T11:07:07;9.87;;;9.07;;
7883;SDS011;3987;51.458;7.238;2024-02-26T11:22:10;10.00;;;9.50;;
7883;SDS011;3987;51.458;7.238;2024-02-26T11:37:11;10.70;;;9.90;;
7883;SDS011;3987;51.458;7.238;2024-02-26T11:52:13;8.27;;;7.87;;
7883;SDS011;3987;51.458;7.238;2024-02-26T12:07:14;7.60;;;7.30;;
7883;SDS011;3987;51.458;7.238;2024-02-26T12:22:14;8.98;;;8.40;;
7883;SDS011;3987;51.458;7.238;2024-02-26T12:37:16;11.75;;;10.98;;
7883;SDS011;3987;51.458;7.238;2024-02-26T12:52:16;10.20;;;9.60;;
7883;SDS011;3987;51.458;7.238;2024-02-26T13:07:17;9.70;;;9.10;;
7883;SDS011;3987;51.458;7.238;2024-02-26T13:22:17;7.83;;;7.40;;
7883;SDS011;3987;51.458;7.238;2024-02-26T13:37:21;7.50;;;7.20;;
7883;SDS011;3987;51.458;7.238;2024-02-26T13:52:22;7.03;;;6.83;;
7883;SDS011;3987;51.458;7.238;2024-02-26T14:07:22;7.00;;;6.77;;
7883;SDS011;3987;51.458;7.238;2024-02-26T14:22:23;6.63;;;6.53;;
7883;SDS011;3987;51.458;7.238;2024-02-26T14:37:23;7.60;;;7.32;;
7883;SDS011;3987;51.458;7.238;2024-02-26T14:52:24;7.82;;;7.53;;
7883;SDS011;3987;51.458;7.238;2024-02-26T15:07:25;7.20;;;6.90;;
7883;SDS011;3987;51.458;7.238;2024-02-26T15:22:25;5.07;;;4.93;;
7883;SDS011;3987;51.458;7.238;2024-02-26T15:37:26;4.53;;;4.33;;
7883;SDS011;3987;51.458;7.238;2024-02-26T15:52:27;4.35;;;4.25;;
7883;SDS011;3987;51.458;7.238;2024-02-26T16:07:32;4.80;;;4.60;;
7883;SDS011;3987;51.458;7.238;2024-02-26T16:22:44;4.18;;;4.07;;
7883;SDS011;3987;51.458;7.238;2024-02-26T16:37:46;4.40;;;4.20;;
7883;SDS011;3987;51.458;7.238;2024-02-26T16:52:46;3.90;;;3.80;;
7883;SDS011;3987;51.458;7.238;2024-02-26T17:07:46;4.10;;;4.10;;
7883;SDS011;3987;51.458;7.238;2024-02-26T17:22:47;4.30;;;4.10;;
7883;SDS011;3987;51.458;7.238;2024-02-26T17:37:47;4.22;;;4.13;;
7883;SDS011;3987;51.458;7.238;2024-02-26T17:52:48;3.65;;;3.55;;
7883;SDS011;3987;51.458;7.238;2024-02-26T18:07:50;4.00;;;3.90;;
7883;SDS011;3987;51.458;7.238;2024-02-26T18:22:50;4.27;;;4.17;;
7883;SDS011;3987;51.458;7.238;2024-02-26T18:37:51;4.30;;;4.20;;
7883;SDS011;3987;51.458;7.238;2024-02-26T18:52:52;5.20;;;5.10;;
7883;SDS011;3987;51.458;7.238;2024-02-26T19:07:53;7.30;;;7.10;;
7883;SDS011;3987;51.458;7.238;2024-02-26T19:23:01;11.00;;;10.50;;
7883;SDS011;3987;51.458;7.238;2024-02-26T19:38:01;13.48;;;12.57;;
7883;SDS011;3987;51.458;7.238;2024-02-26T19:53:02;14.90;;;14.10;;
7883;SDS011;3987;51.458;7.238;2024-02-26T20:08:02;14.27;;;13.38;;
7883;SDS011;3987;51.458;7.238;2024-02-26T20:23:04;15.60;;;14.47;;
7883;SDS011;3987;51.458;7.238;2024-02-26T20:38:04;15.90;;;14.60;;
7883;SDS011;3987;51.458;7.238;2024-02-26T20:53:05;16.83;;;15.57;;
7883;SDS011;3987;51.458;7.238;2024-02-26T21:08:06;18.25;;;16.75;;
7883;SDS011;3987;51.458;7.238;2024-02-26T21:23:06;20.95;;;18.88;;
7883;SDS011;3987;51.458;7.238;2024-02-26T21:38:08;24.67;;;22.40;;
7883;SDS011;3987;51.458;7.238;2024-02-26T21:53:09;30.57;;;27.50;;
7883;SDS011;3987;51.458;7.238;2024-02-26T22:08:09;33.75;;;30.25;;
7883;SDS011;3987;51.458;7.238;2024-02-26T22:23:10;36.95;;;33.05;;
7883;SDS011;3987;51.458;7.238;2024-02-26T22:38:10;40.07;;;35.93;;
7883;SDS011;3987;51.458;7.238;2024-02-26T22:53:11;39.42;;;35.42;;
7883;SDS011;3987;51.458;7.238;2024-02-26T23:08:11;41.47;;;36.73;;
7883;SDS011;3987;51.458;7.238;2024-02-26T23:23:12;38.72;;;34.72;;
7883;SDS011;3987;51.458;7.238;2024-02-26T23:38:13;40.40;;;36.10;;
7883;SDS011;3987;51.458;7.238;2024-02-26T23:53:13;42.95;;;38.45;;
